createdAt,value
2018-07-17T00:01:21.895Z,55.70
2018-07-17T00:06:12.766Z,55.60
2018-07-17T00:11:04.396Z,55.80
2018-07-17T00:15:56.039Z,55.80
2018-07-17T00:20:47.706Z,56.10
2018-07-17T00:25:38.639Z,56.00
2018-07-17T00:30:29.562Z,56.00
2018-07-17T00:35:20.474Z,56.00
2018-07-17T00:40:11.370Z,56.10
2018-07-17T00:45:02.257Z,56.00
2018-07-17T00:49:53.153Z,56.10
2018-07-17T00:54:44.058Z,56.10
2018-07-17T00:59:34.958Z,56.10
2018-07-17T01:04:31.981Z,56.10
2018-07-17T01:09:29.790Z,56.20
2018-07-17T01:14:20.690Z,56.20
2018-07-17T01:19:12.373Z,56.30
2018-07-17T01:24:03.266Z,56.30
2018-07-17T01:28:54.167Z,56.40
2018-07-17T01:33:45.070Z,56.30
2018-07-17T01:38:36.714Z,56.40
2018-07-17T01:43:28.354Z,56.50
2018-07-17T01:48:20.004Z,56.50
2018-07-17T01:53:10.901Z,56.50
2018-07-17T01:58:02.542Z,56.60
2018-07-17T02:02:54.171Z,56.60
2018-07-17T02:07:52.770Z,56.60
2018-07-17T02:12:44.416Z,56.60
2018-07-17T02:17:35.319Z,56.60
2018-07-17T02:22:26.957Z,56.70
2018-07-17T02:27:18.591Z,56.70
2018-07-17T02:32:10.245Z,56.70
2018-07-17T02:37:01.207Z,56.70
2018-07-17T02:41:52.096Z,56.80
2018-07-17T02:46:43.068Z,56.80
2018-07-17T02:51:33.906Z,56.80
2018-07-17T02:56:25.540Z,57.00
2018-07-17T03:01:17.202Z,57.10
2018-07-17T03:06:08.106Z,57.00
2018-07-17T03:10:59.023Z,57.00
2018-07-17T03:15:49.909Z,57.10
2018-07-17T03:20:40.797Z,57.00
2018-07-17T03:25:31.692Z,57.00
2018-07-17T03:30:22.635Z,57.20
2018-07-17T03:35:13.534Z,57.20
2018-07-17T03:40:04.428Z,57.20
2018-07-17T03:44:55.389Z,57.20
2018-07-17T03:49:46.290Z,57.10
2018-07-17T03:54:37.211Z,57.10
2018-07-17T03:59:28.106Z,57.10
2018-07-17T04:04:19.015Z,57.10
2018-07-17T04:09:09.981Z,57.10
2018-07-17T04:14:00.895Z,57.10
2018-07-17T04:18:51.804Z,57.10
2018-07-17T04:23:42.707Z,57.10
2018-07-17T04:28:33.656Z,57.00
2018-07-17T04:33:24.576Z,57.00
2018-07-17T04:38:15.489Z,57.10
2018-07-17T04:43:06.361Z,57.00
2018-07-17T04:47:58.007Z,57.20
2018-07-17T04:52:48.911Z,57.10
2018-07-17T04:57:40.566Z,56.70
2018-07-17T05:02:31.466Z,56.80
2018-07-17T05:07:23.167Z,57.00
2018-07-17T05:12:14.093Z,57.00
2018-07-17T05:17:04.987Z,57.30
2018-07-17T05:21:55.883Z,57.50
2018-07-17T05:26:46.768Z,57.40
2018-07-17T05:31:38.394Z,57.40
2018-07-17T05:36:29.276Z,57.40
2018-07-17T05:41:20.191Z,56.70
2018-07-17T05:46:11.093Z,57.40
2018-07-17T05:51:02.018Z,57.30
2018-07-17T05:55:52.909Z,57.00
2018-07-17T06:00:43.823Z,57.10
2018-07-17T06:05:35.578Z,57.10
2018-07-17T06:10:26.574Z,57.00
2018-07-17T06:15:17.434Z,57.00
2018-07-17T06:20:08.382Z,57.00
2018-07-17T06:24:59.293Z,57.20
2018-07-17T06:29:50.199Z,57.10
2018-07-17T06:34:41.143Z,57.20
2018-07-17T06:39:32.147Z,57.20
2018-07-17T06:44:23.074Z,57.20
2018-07-17T06:49:14.008Z,57.20
2018-07-17T06:54:04.919Z,57.30
2018-07-17T06:58:55.817Z,57.20
2018-07-17T07:03:46.729Z,57.40
2018-07-17T07:08:37.654Z,57.50
2018-07-17T07:13:28.562Z,57.60
2018-07-17T07:18:19.471Z,57.60
2018-07-17T07:23:10.407Z,57.90
2018-07-17T07:28:01.276Z,58.10
2018-07-17T07:32:52.906Z,57.90
2018-07-17T07:37:44.556Z,57.80
2018-07-17T07:42:35.458Z,57.80
2018-07-17T07:47:27.162Z,57.70
2018-07-17T07:52:18.090Z,57.60
2018-07-17T07:57:08.992Z,57.70
2018-07-17T08:01:59.882Z,57.70
2018-07-17T08:06:50.771Z,57.50
2018-07-17T08:11:42.431Z,57.40
2018-07-17T08:16:33.390Z,57.30
2018-07-17T08:21:24.285Z,57.20
2018-07-17T08:26:15.213Z,57.20
2018-07-17T08:31:06.139Z,56.90
2018-07-17T08:35:57.070Z,56.90
2018-07-17T08:40:47.990Z,56.70
2018-07-17T08:45:38.889Z,56.70
2018-07-17T08:50:29.781Z,56.60
2018-07-17T08:55:20.685Z,56.40
2018-07-17T09:00:11.577Z,56.10
2018-07-17T09:05:02.485Z,55.90
2018-07-17T09:09:54.132Z,55.60
2018-07-17T09:14:45.031Z,55.60
2018-07-17T09:19:35.938Z,56.20
2018-07-17T09:24:26.845Z,55.60
2018-07-17T09:29:17.754Z,55.60
2018-07-17T09:34:08.639Z,55.30
2018-07-17T09:39:00.406Z,55.30
2018-07-17T09:43:51.240Z,55.30
2018-07-17T09:48:42.140Z,54.00
2018-07-17T09:53:33.037Z,54.10
2018-07-17T09:58:24.683Z,54.30
2018-07-17T10:03:15.631Z,54.20
2018-07-17T10:08:06.535Z,54.10
2018-07-17T10:12:57.446Z,54.30
2018-07-17T10:17:48.352Z,54.00
2018-07-17T10:22:39.309Z,54.00
2018-07-17T10:27:30.202Z,54.00
2018-07-17T10:32:21.092Z,53.90
2018-07-17T10:37:12.813Z,53.60
2018-07-17T10:42:03.699Z,53.60
2018-07-17T10:46:55.336Z,52.90
2018-07-17T10:51:46.257Z,52.90
2018-07-17T10:56:37.192Z,52.60
2018-07-17T11:01:28.098Z,52.50
2018-07-17T11:06:18.996Z,52.20
2018-07-17T11:11:10.002Z,52.00
2018-07-17T11:16:00.956Z,51.90
2018-07-17T11:20:51.861Z,51.70
2018-07-17T11:25:42.849Z,51.00
2018-07-17T11:30:33.758Z,50.60
2018-07-17T11:35:25.423Z,50.40
2018-07-17T11:40:16.330Z,50.40
2018-07-17T11:45:07.239Z,50.10
2018-07-17T11:49:58.203Z,49.70
2018-07-17T11:54:49.112Z,49.20
2018-07-17T11:59:40.129Z,48.40
2018-07-17T12:04:30.939Z,48.40
2018-07-17T12:09:21.886Z,48.40
2018-07-17T12:14:12.797Z,48.40
2018-07-17T12:19:03.711Z,48.00
2018-07-17T12:23:55.360Z,47.50
2018-07-17T12:28:46.293Z,47.60
2018-07-17T12:33:37.945Z,46.40
2018-07-17T12:38:29.580Z,46.60
2018-07-17T12:43:21.225Z,46.10
2018-07-17T12:48:12.132Z,46.00
2018-07-17T12:53:03.772Z,46.00
2018-07-17T12:57:55.446Z,45.50
2018-07-17T13:02:46.376Z,45.50
2018-07-17T13:07:37.300Z,45.30
2018-07-17T13:12:28.194Z,45.50
2018-07-17T13:17:19.100Z,45.30
2018-07-17T13:22:09.989Z,45.10
2018-07-17T13:27:01.625Z,45.10
2018-07-17T13:31:54.058Z,44.70
2018-07-17T13:36:44.965Z,44.60
2018-07-17T13:41:35.890Z,44.40
2018-07-17T13:46:26.806Z,44.20
2018-07-17T13:51:17.707Z,44.20
2018-07-17T13:56:08.661Z,44.20
2018-07-17T14:00:59.523Z,44.20
2018-07-17T14:05:50.417Z,43.50
2018-07-17T14:10:42.222Z,43.40
2018-07-17T14:15:33.777Z,43.40
2018-07-17T14:20:25.426Z,43.30
2018-07-17T14:25:17.051Z,43.30
2018-07-17T14:30:15.917Z,43.60
2018-07-17T14:35:06.934Z,43.50
2018-07-17T14:39:57.840Z,44.20
2018-07-17T14:44:48.739Z,44.10
2018-07-17T14:49:39.695Z,44.10
2018-07-17T14:54:30.613Z,44.30
2018-07-17T14:59:21.628Z,44.20
2018-07-17T15:04:13.275Z,43.90
2018-07-17T15:09:04.176Z,43.80
2018-07-17T15:13:55.109Z,43.80
2018-07-17T15:18:45.995Z,44.00
2018-07-17T15:23:36.954Z,44.20
2018-07-17T15:28:27.847Z,44.40
2018-07-17T15:33:18.743Z,44.80
2018-07-17T15:38:09.635Z,44.50
2018-07-17T15:43:01.269Z,44.20
2018-07-17T15:47:52.893Z,44.40
2018-07-17T15:52:44.554Z,45.20
2018-07-17T15:57:36.191Z,44.40
2018-07-17T16:02:27.820Z,44.30
2018-07-17T16:07:19.545Z,43.90
2018-07-17T16:12:11.214Z,43.90
2018-07-17T16:17:02.139Z,43.90
2018-07-17T16:21:53.028Z,44.10
2018-07-17T16:26:44.719Z,44.20
2018-07-17T16:31:35.639Z,44.20
2018-07-17T16:36:26.537Z,44.30
2018-07-17T16:41:17.476Z,44.30
2018-07-17T16:46:08.383Z,44.50
2018-07-17T16:50:59.286Z,44.40
2018-07-17T16:55:50.186Z,44.60
2018-07-17T17:00:41.154Z,44.70
2018-07-17T17:05:32.062Z,44.80
2018-07-17T17:10:22.974Z,45.20
2018-07-17T17:15:13.905Z,45.30
2018-07-17T17:20:04.801Z,45.20
2018-07-17T17:24:55.710Z,45.60
2018-07-17T17:29:46.606Z,46.00
2018-07-17T17:34:38.250Z,46.70
2018-07-17T17:39:29.182Z,46.60
2018-07-17T17:44:20.058Z,47.10
2018-07-17T17:49:10.963Z,47.30
2018-07-17T17:54:01.864Z,47.40
2018-07-17T17:58:52.775Z,47.70
2018-07-17T18:03:43.698Z,48.00
2018-07-17T18:08:34.605Z,48.30
2018-07-17T18:13:25.504Z,48.40
2018-07-17T18:18:16.478Z,49.30
2018-07-17T18:23:07.368Z,48.90
2018-07-17T18:27:58.256Z,49.10
2018-07-17T18:32:49.144Z,49.20
2018-07-17T18:37:40.784Z,49.50
2018-07-17T18:42:32.429Z,49.70
2018-07-17T18:47:24.068Z,50.00
2018-07-17T18:52:15.017Z,50.00
2018-07-17T18:57:06.620Z,50.30
2018-07-17T19:01:58.245Z,50.40
2018-07-17T19:06:50.023Z,50.40
2018-07-17T19:11:40.925Z,50.40
2018-07-17T19:16:31.834Z,50.50
2018-07-17T19:21:22.810Z,50.60
2018-07-17T19:26:13.718Z,50.80
2018-07-17T19:31:04.609Z,50.90
2018-07-17T19:35:55.531Z,51.00
2018-07-17T19:40:46.522Z,51.10
2018-07-17T19:45:37.402Z,51.10
2018-07-17T19:50:28.321Z,51.20
2018-07-17T19:55:19.340Z,51.30
2018-07-17T20:00:10.238Z,51.30
2018-07-17T20:05:01.133Z,51.40
2018-07-17T20:09:52.096Z,51.50
2018-07-17T20:14:43.007Z,51.70
2018-07-17T20:19:34.750Z,51.90
2018-07-17T20:24:25.638Z,51.90
2018-07-17T20:29:16.543Z,52.10
2018-07-17T20:34:07.428Z,52.10
2018-07-17T20:38:58.434Z,52.30
2018-07-17T20:43:49.324Z,52.40
2018-07-17T20:48:40.248Z,52.60
2018-07-17T20:53:31.198Z,52.60
2018-07-17T20:58:22.105Z,52.60
2018-07-17T21:03:13.005Z,52.60
2018-07-17T21:08:04.650Z,52.70
2018-07-17T21:12:55.586Z,52.70
2018-07-17T21:17:46.484Z,52.70
2018-07-17T21:22:37.392Z,52.70
2018-07-17T21:27:28.319Z,52.60
2018-07-17T21:32:19.240Z,52.80
2018-07-17T21:37:10.170Z,52.80
2018-07-17T21:42:01.082Z,52.90
2018-07-17T21:46:51.983Z,52.80
2018-07-17T21:51:42.880Z,53.00
2018-07-17T21:56:33.786Z,53.10
2018-07-17T22:01:24.680Z,53.10
2018-07-17T22:06:16.381Z,53.10
2018-07-17T22:11:07.294Z,53.10
2018-07-17T22:15:58.224Z,53.20
2018-07-17T22:20:49.136Z,53.20
2018-07-17T22:25:40.780Z,53.30
2018-07-17T22:30:32.416Z,53.40
2018-07-17T22:35:23.300Z,53.40
2018-07-17T22:40:14.252Z,53.40
2018-07-17T22:45:05.154Z,53.50
2018-07-17T22:49:56.109Z,53.60
2018-07-17T22:54:47.008Z,53.80
2018-07-17T22:59:37.910Z,53.90
2018-07-17T23:04:28.816Z,54.00
2018-07-17T23:09:19.743Z,54.00
2018-07-17T23:14:10.665Z,54.00
2018-07-17T23:19:01.623Z,54.10
2018-07-17T23:23:52.518Z,54.10
2018-07-17T23:28:43.418Z,54.10
2018-07-17T23:33:34.321Z,54.30
2018-07-17T23:38:25.296Z,54.30
2018-07-17T23:43:16.196Z,54.30
2018-07-17T23:48:07.121Z,54.30
2018-07-17T23:52:58.025Z,54.30
2018-07-17T23:57:48.932Z,54.50
